createdAt,value
2018-03-21T00:01:46.801Z,20.20
2018-03-21T00:02:46.818Z,22.60
2018-03-21T00:03:46.815Z,17.40
2018-03-21T00:04:46.164Z,17.10
2018-03-21T00:05:46.824Z,15.60
2018-03-21T00:06:46.166Z,15.60
2018-03-21T00:07:46.127Z,12.70
2018-03-21T00:08:46.331Z,19.50
2018-03-21T00:09:46.098Z,15.80
2018-03-21T00:10:46.118Z,16.20
2018-03-21T00:11:46.091Z,14.00
2018-03-21T00:12:46.091Z,15.80
2018-03-21T00:13:46.363Z,12.40
2018-03-21T00:14:46.832Z,12.50
2018-03-21T00:15:46.061Z,14.00
2018-03-21T00:16:46.071Z,16.00
2018-03-21T00:17:46.833Z,17.20
2018-03-21T00:18:46.065Z,17.20
2018-03-21T00:19:46.054Z,15.70
2018-03-21T00:20:46.030Z,14.10
2018-03-21T00:23:20.824Z,15.20
2018-03-21T00:24:20.544Z,13.00
2018-03-21T00:25:20.527Z,14.70
2018-03-21T00:26:20.499Z,16.40
2018-03-21T00:27:21.246Z,15.10
2018-03-21T00:28:21.250Z,22.10
2018-03-21T00:29:21.206Z,19.30
2018-03-21T00:30:21.216Z,24.00
2018-03-21T00:31:21.229Z,15.20
2018-03-21T00:32:20.497Z,16.60
2018-03-21T00:33:20.735Z,15.50
2018-03-21T00:34:20.478Z,14.50
2018-03-21T00:35:20.502Z,13.20
2018-03-21T00:36:20.470Z,11.60
2018-03-21T00:37:20.453Z,12.20
2018-03-21T00:38:20.487Z,17.60
2018-03-21T00:39:21.248Z,15.20
2018-03-21T00:40:20.414Z,13.50
2018-03-21T00:41:20.449Z,17.30
2018-03-21T00:42:20.405Z,20.60
2018-03-21T00:43:31.258Z,14.90
2018-03-21T00:44:20.410Z,16.60
2018-03-21T00:45:20.398Z,17.90
2018-03-21T00:46:21.220Z,12.60
2018-03-21T00:47:20.367Z,19.10
2018-03-21T00:48:20.349Z,17.00
2018-03-21T00:49:20.358Z,14.50
2018-03-21T00:50:21.246Z,12.40
2018-03-21T00:51:20.313Z,15.00
2018-03-21T00:52:21.216Z,16.50
2018-03-21T00:53:20.283Z,14.90
2018-03-21T00:54:21.216Z,12.80
2018-03-21T00:55:20.311Z,11.40
2018-03-21T00:56:20.307Z,12.20
2018-03-21T00:57:20.240Z,13.00
2018-03-21T00:58:21.226Z,12.10
2018-03-21T00:59:20.766Z,16.30
2018-03-21T01:00:20.239Z,14.90
2018-03-21T01:01:20.231Z,13.70
2018-03-21T01:02:20.241Z,14.10
2018-03-21T01:03:20.198Z,11.10
2018-03-21T01:05:54.803Z,12.10
2018-03-21T01:06:55.395Z,13.60
2018-03-21T01:07:54.715Z,13.80
2018-03-21T01:08:54.739Z,11.90
2018-03-21T01:09:54.694Z,12.20
2018-03-21T01:10:54.701Z,15.50
2018-03-21T01:11:54.640Z,15.70
2018-03-21T01:12:55.381Z,11.90
2018-03-21T01:13:55.395Z,12.80
2018-03-21T01:14:54.711Z,12.60
2018-03-21T01:15:54.634Z,11.00
2018-03-21T01:16:54.660Z,9.40
2018-03-21T01:17:54.627Z,7.70
2018-03-21T01:18:55.368Z,11.70
2018-03-21T01:19:54.889Z,11.20
2018-03-21T01:20:55.411Z,11.70
2018-03-21T01:21:55.409Z,10.30
2018-03-21T01:22:54.618Z,11.00
2018-03-21T01:23:54.587Z,10.50
2018-03-21T01:24:54.916Z,10.50
2018-03-21T01:27:29.342Z,10.80
2018-03-21T01:28:29.082Z,7.70
2018-03-21T01:29:29.076Z,12.00
2018-03-21T01:30:29.754Z,14.70
2018-03-21T01:31:29.030Z,13.60
2018-03-21T01:32:29.050Z,11.60
2018-03-21T01:33:29.035Z,12.20
2018-03-21T01:34:29.257Z,10.80
2018-03-21T01:35:28.974Z,10.00
2018-03-21T01:36:29.784Z,13.50
2018-03-21T01:37:28.999Z,12.00
2018-03-21T01:38:28.952Z,12.00
2018-03-21T01:39:28.980Z,15.20
2018-03-21T01:40:28.988Z,15.40
2018-03-21T01:41:28.936Z,11.50
2018-03-21T01:42:29.778Z,10.60
2018-03-21T01:43:28.916Z,11.70
2018-03-21T01:44:29.261Z,10.60
2018-03-21T01:45:28.902Z,11.30
2018-03-21T01:46:28.896Z,11.50
2018-03-21T01:49:03.628Z,11.40
2018-03-21T01:50:03.441Z,10.60
2018-03-21T01:51:03.452Z,9.90
2018-03-21T01:52:03.406Z,10.50
2018-03-21T01:53:03.404Z,10.70
2018-03-21T01:54:03.437Z,12.40
2018-03-21T01:55:03.374Z,16.00
2018-03-21T01:56:03.351Z,13.30
2018-03-21T01:57:04.114Z,12.50
2018-03-21T01:58:03.353Z,11.80
2018-03-21T01:59:03.382Z,11.90
2018-03-21T02:00:04.099Z,11.90
2018-03-21T02:01:03.304Z,14.50
2018-03-21T02:02:03.272Z,11.00
2018-03-21T02:03:04.124Z,14.60
2018-03-21T02:04:03.628Z,13.70
2018-03-21T02:05:03.283Z,12.80
2018-03-21T02:06:03.247Z,16.70
2018-03-21T02:07:04.100Z,17.10
2018-03-21T02:08:03.244Z,14.90
2018-03-21T02:09:29.611Z,17.40
2018-03-21T02:10:03.238Z,16.80
2018-03-21T02:11:04.088Z,14.70
2018-03-21T02:12:03.168Z,15.10
2018-03-21T02:13:04.089Z,12.30
2018-03-21T02:14:03.209Z,10.80
2018-03-21T02:15:03.153Z,11.50
2018-03-21T02:16:04.083Z,13.30
2018-03-21T02:17:03.137Z,11.90
2018-03-21T02:18:04.069Z,11.50
2018-03-21T02:19:04.113Z,14.20
2018-03-21T02:20:03.088Z,9.80
2018-03-21T02:21:04.084Z,9.00
2018-03-21T02:22:03.074Z,9.80
2018-03-21T02:23:03.597Z,12.50
2018-03-21T02:24:03.588Z,10.50
2018-03-21T02:25:03.622Z,10.40
2018-03-21T02:26:03.038Z,9.60
2018-03-21T02:27:03.546Z,14.70
2018-03-21T02:28:03.047Z,11.50
2018-03-21T02:29:03.570Z,9.60
2018-03-21T02:31:37.665Z,15.40
2018-03-21T02:32:37.565Z,13.40
2018-03-21T02:33:38.215Z,12.40
2018-03-21T02:34:37.535Z,10.30
2018-03-21T02:35:38.188Z,11.40
2018-03-21T02:36:38.222Z,13.80
2018-03-21T02:37:37.509Z,13.40
2018-03-21T02:38:37.542Z,14.10
2018-03-21T02:39:37.499Z,13.20
2018-03-21T02:40:37.456Z,12.10
2018-03-21T02:41:37.423Z,14.50
2018-03-21T02:42:37.391Z,12.50
2018-03-21T02:43:37.418Z,8.20
2018-03-21T02:44:37.726Z,11.20
2018-03-21T02:45:37.444Z,9.70
2018-03-21T02:46:37.416Z,7.90
2018-03-21T02:47:37.379Z,9.00
2018-03-21T02:48:38.151Z,10.90
2018-03-21T02:49:37.399Z,12.10
2018-03-21T02:50:37.346Z,13.90
2018-03-21T02:53:12.132Z,10.70
2018-03-21T02:54:11.981Z,10.70
2018-03-21T02:55:11.865Z,10.30
2018-03-21T02:56:12.545Z,14.20
2018-03-21T02:57:12.504Z,15.40
2018-03-21T02:58:11.873Z,12.60
2018-03-21T02:59:11.835Z,14.60
2018-03-21T03:00:12.063Z,12.50
2018-03-21T03:01:11.834Z,8.20
2018-03-21T03:02:11.822Z,10.90
2018-03-21T03:03:11.803Z,9.40
2018-03-21T03:04:11.790Z,13.30
2018-03-21T03:05:11.813Z,14.60
2018-03-21T03:06:11.798Z,10.80
2018-03-21T03:07:11.747Z,11.80
2018-03-21T03:08:11.756Z,11.70
2018-03-21T03:09:12.543Z,11.20
2018-03-21T03:10:11.727Z,12.00
2018-03-21T03:11:11.713Z,11.00
2018-03-21T03:12:12.565Z,11.20
2018-03-21T03:14:46.543Z,12.00
2018-03-21T03:15:46.245Z,12.60
2018-03-21T03:16:46.190Z,11.30
2018-03-21T03:17:46.904Z,10.10
2018-03-21T03:18:46.180Z,10.90
2018-03-21T03:19:46.915Z,10.90
2018-03-21T03:20:46.153Z,12.40
2018-03-21T03:21:46.881Z,10.40
2018-03-21T03:22:46.890Z,13.80
2018-03-21T03:23:46.930Z,17.80
2018-03-21T03:24:46.162Z,13.40
2018-03-21T03:25:46.155Z,12.20
2018-03-21T03:26:46.088Z,12.50
2018-03-21T03:27:46.920Z,11.40
2018-03-21T03:28:46.076Z,10.80
2018-03-21T03:29:46.413Z,12.30
2018-03-21T03:30:46.881Z,12.00
2018-03-21T03:31:46.030Z,10.30
2018-03-21T03:32:46.011Z,9.70
2018-03-21T03:33:45.982Z,9.40
2018-03-21T03:35:07.072Z,8.00
2018-03-21T03:35:45.981Z,11.50
2018-03-21T03:36:45.971Z,10.20
2018-03-21T03:37:45.964Z,13.20
2018-03-21T03:38:45.953Z,11.40
2018-03-21T03:39:45.963Z,11.70
2018-03-21T03:40:45.912Z,15.40
2018-03-21T03:41:45.897Z,14.30
2018-03-21T03:42:45.905Z,11.40
2018-03-21T03:43:45.892Z,12.50
2018-03-21T03:44:45.925Z,10.50
2018-03-21T03:45:45.857Z,10.40
2018-03-21T03:46:45.878Z,11.40
2018-03-21T03:47:45.848Z,8.60
2018-03-21T03:48:45.827Z,12.10
2018-03-21T03:49:45.877Z,9.50
2018-03-21T03:50:45.784Z,8.40
2018-03-21T03:51:45.814Z,10.20
2018-03-21T03:52:45.779Z,8.20
2018-03-21T03:53:45.782Z,10.90
2018-03-21T03:54:45.816Z,9.50
2018-03-21T03:55:45.858Z,9.50
2018-03-21T03:56:45.749Z,8.70
2018-03-21T03:57:45.716Z,9.70
2018-03-21T03:58:45.715Z,11.00
2018-03-21T03:59:45.750Z,14.40
2018-03-21T04:00:45.688Z,10.20
2018-03-21T04:01:45.662Z,11.80
2018-03-21T04:02:45.656Z,13.90
2018-03-21T04:03:45.791Z,9.70
2018-03-21T04:04:45.696Z,12.10
2018-03-21T04:05:45.665Z,9.70
2018-03-21T04:06:45.617Z,11.10
2018-03-21T04:07:45.597Z,13.00
2018-03-21T04:08:45.642Z,15.50
2018-03-21T04:09:45.591Z,10.10
2018-03-21T04:10:45.569Z,12.10
2018-03-21T04:11:45.559Z,9.30
2018-03-21T04:12:45.565Z,11.10
2018-03-21T04:13:45.601Z,10.80
2018-03-21T04:14:45.515Z,16.10
2018-03-21T04:15:45.535Z,12.30
2018-03-21T04:18:21.283Z,17.20
2018-03-21T04:19:21.246Z,11.90
2018-03-21T04:20:21.043Z,11.60
2018-03-21T04:21:21.043Z,12.10
2018-03-21T04:22:21.029Z,10.70
2018-03-21T04:23:21.240Z,12.50
2018-03-21T04:24:21.006Z,15.00
2018-03-21T04:25:21.001Z,17.00
2018-03-21T04:26:20.980Z,17.80
2018-03-21T04:27:20.993Z,15.20
2018-03-21T04:28:20.982Z,18.50
2018-03-21T04:29:20.907Z,25.70
2018-03-21T04:30:20.897Z,21.90
2018-03-21T04:31:20.881Z,18.50
2018-03-21T04:32:20.880Z,21.00
2018-03-21T04:33:20.894Z,22.40
2018-03-21T04:34:20.866Z,22.10
2018-03-21T04:35:20.863Z,25.10
2018-03-21T04:36:20.838Z,17.70
2018-03-21T04:37:20.857Z,16.80
2018-03-21T04:39:56.536Z,9.80
2018-03-21T04:40:56.331Z,9.10
2018-03-21T04:41:56.336Z,23.00
2018-03-21T04:42:56.325Z,18.00
2018-03-21T04:43:56.299Z,27.10
2018-03-21T04:44:56.258Z,31.70
2018-03-21T04:45:56.246Z,35.60
2018-03-21T04:46:56.256Z,25.10
2018-03-21T04:47:56.288Z,34.50
2018-03-21T04:48:56.239Z,50.90
2018-03-21T04:49:56.216Z,22.00
2018-03-21T04:50:56.203Z,20.30
2018-03-21T04:51:56.192Z,25.30
2018-03-21T04:52:56.218Z,27.30
2018-03-21T04:53:56.172Z,25.20
2018-03-21T04:54:56.157Z,19.90
2018-03-21T04:55:56.128Z,18.90
2018-03-21T04:56:56.134Z,27.30
2018-03-21T04:57:56.190Z,38.60
2018-03-21T04:58:56.129Z,32.10
2018-03-21T05:01:30.891Z,15.40
2018-03-21T05:02:31.334Z,16.50
2018-03-21T05:03:30.612Z,21.80
2018-03-21T05:04:30.611Z,23.90
2018-03-21T05:05:30.618Z,21.90
2018-03-21T05:06:30.588Z,17.30
2018-03-21T05:07:30.604Z,15.80
2018-03-21T05:08:30.614Z,13.40
2018-03-21T05:09:30.583Z,11.30
2018-03-21T05:10:30.573Z,14.80
2018-03-21T05:11:30.608Z,17.20
2018-03-21T05:12:30.555Z,16.00
2018-03-21T05:13:30.591Z,14.20
2018-03-21T05:14:30.498Z,15.20
2018-03-21T05:15:30.497Z,12.10
2018-03-21T05:16:30.509Z,8.90
2018-03-21T05:17:30.465Z,11.80
2018-03-21T05:18:30.507Z,11.10
2018-03-21T05:19:30.452Z,12.90
2018-03-21T05:20:30.452Z,21.60
2018-03-21T05:23:06.060Z,25.70
2018-03-21T05:24:05.997Z,26.60
2018-03-21T05:25:05.962Z,19.00
2018-03-21T05:26:05.939Z,16.70
2018-03-21T05:27:05.942Z,23.30
2018-03-21T05:28:06.486Z,15.10
2018-03-21T05:29:05.964Z,13.80
2018-03-21T05:30:05.904Z,18.50
2018-03-21T05:31:05.866Z,21.70
2018-03-21T05:32:05.873Z,16.10
2018-03-21T05:33:05.902Z,23.70
2018-03-21T05:34:05.872Z,34.10
2018-03-21T05:35:05.846Z,23.90
2018-03-21T05:36:05.816Z,26.30
2018-03-21T05:37:05.849Z,13.30
2018-03-21T05:38:05.826Z,20.70
2018-03-21T05:39:05.765Z,23.00
2018-03-21T05:40:05.770Z,14.70
2018-03-21T05:41:05.774Z,14.50
2018-03-21T05:42:05.731Z,19.50
2018-03-21T05:44:40.389Z,26.10
2018-03-21T05:45:40.243Z,29.80
2018-03-21T05:46:40.226Z,26.00
2018-03-21T05:47:40.222Z,31.90
2018-03-21T05:48:40.255Z,25.80
2018-03-21T05:49:40.191Z,29.90
2018-03-21T05:50:40.201Z,30.50
2018-03-21T05:51:40.167Z,37.80
2018-03-21T05:52:40.197Z,30.90
2018-03-21T05:53:40.182Z,61.10
2018-03-21T05:54:40.179Z,42.50
2018-03-21T05:55:40.146Z,29.20
2018-03-21T05:56:40.096Z,21.80
2018-03-21T05:57:40.078Z,29.30
2018-03-21T05:58:40.139Z,34.20
2018-03-21T05:59:40.088Z,34.10
2018-03-21T06:00:40.104Z,77.20
2018-03-21T06:01:40.042Z,32.50
2018-03-21T06:02:40.036Z,37.30
2018-03-21T06:03:40.068Z,18.40
2018-03-21T06:06:14.391Z,17.80
2018-03-21T06:07:14.183Z,19.00
2018-03-21T06:08:14.156Z,24.60
2018-03-21T06:09:14.049Z,23.20
2018-03-21T06:10:14.047Z,19.50
2018-03-21T06:11:13.971Z,18.70
2018-03-21T06:12:13.976Z,28.50
2018-03-21T06:13:13.971Z,41.00
2018-03-21T06:14:14.031Z,28.50
2018-03-21T06:15:13.977Z,19.00
2018-03-21T06:16:13.978Z,31.70
2018-03-21T06:17:13.941Z,44.20
2018-03-21T06:18:13.927Z,40.60
2018-03-21T06:19:13.949Z,44.90
2018-03-21T06:20:13.901Z,37.10
2018-03-21T06:21:13.890Z,29.00
2018-03-21T06:22:13.862Z,23.80
2018-03-21T06:23:13.865Z,20.80
2018-03-21T06:24:13.903Z,22.50
2018-03-21T06:25:13.843Z,28.50
2018-03-21T06:27:48.555Z,20.60
2018-03-21T06:28:48.409Z,20.00
2018-03-21T06:29:49.055Z,30.90
2018-03-21T06:30:48.337Z,16.60
2018-03-21T06:31:48.341Z,10.90
2018-03-21T06:32:48.388Z,14.30
2018-03-21T06:33:48.316Z,17.30
2018-03-21T06:34:48.355Z,17.10
2018-03-21T06:35:48.297Z,16.40
2018-03-21T06:36:48.316Z,11.40
2018-03-21T06:37:48.323Z,8.60
2018-03-21T06:38:48.356Z,10.70
2018-03-21T06:39:48.360Z,11.00
2018-03-21T06:40:48.289Z,9.00
2018-03-21T06:41:48.255Z,9.10
2018-03-21T06:42:48.300Z,8.20
2018-03-21T06:43:48.268Z,8.00
2018-03-21T06:44:48.292Z,8.80
2018-03-21T06:45:48.232Z,7.80
2018-03-21T06:46:48.221Z,8.20
2018-03-21T06:47:53.093Z,9.00
2018-03-21T06:48:48.217Z,10.10
2018-03-21T06:49:48.237Z,11.60
2018-03-21T06:50:48.207Z,11.10
2018-03-21T06:51:48.196Z,12.10
2018-03-21T06:52:48.199Z,13.20
2018-03-21T06:53:48.186Z,11.40
2018-03-21T06:54:48.229Z,12.80
2018-03-21T06:55:48.184Z,12.40
2018-03-21T06:56:48.170Z,10.80
2018-03-21T06:57:48.162Z,13.10
2018-03-21T06:58:48.203Z,13.30
2018-03-21T06:59:48.193Z,12.40
2018-03-21T07:00:48.169Z,11.10
2018-03-21T07:01:48.159Z,12.30
2018-03-21T07:02:48.192Z,12.90
2018-03-21T07:03:48.171Z,10.80
2018-03-21T07:04:48.112Z,11.10
2018-03-21T07:05:48.138Z,13.40
2018-03-21T07:06:48.145Z,11.80
2018-03-21T07:07:48.132Z,11.50
2018-03-21T07:09:12.611Z,11.50
2018-03-21T07:09:48.149Z,13.00
2018-03-21T07:10:48.117Z,11.60
2018-03-21T07:11:48.114Z,12.20
2018-03-21T07:12:48.164Z,13.30
2018-03-21T07:13:48.164Z,14.30
2018-03-21T07:14:48.121Z,12.50
2018-03-21T07:15:48.102Z,12.60
2018-03-21T07:16:48.172Z,13.60
2018-03-21T07:17:48.098Z,12.70
2018-03-21T07:18:48.154Z,15.20
2018-03-21T07:19:48.135Z,12.70
2018-03-21T07:20:48.114Z,13.20
2018-03-21T07:21:48.098Z,14.30
2018-03-21T07:22:48.086Z,13.80
2018-03-21T07:23:48.149Z,11.90
2018-03-21T07:24:48.114Z,14.10
2018-03-21T07:25:48.090Z,14.50
2018-03-21T07:26:48.097Z,13.50
2018-03-21T07:27:48.160Z,13.20
2018-03-21T07:28:48.073Z,12.40
2018-03-21T07:29:59.075Z,14.90
2018-03-21T07:30:48.077Z,14.00
2018-03-21T07:31:48.102Z,14.80
2018-03-21T07:32:48.152Z,14.60
2018-03-21T07:33:48.082Z,15.30
2018-03-21T07:34:48.091Z,14.30
2018-03-21T07:35:48.107Z,15.10
2018-03-21T07:36:48.109Z,15.80
2018-03-21T07:37:48.143Z,16.20
2018-03-21T07:38:48.108Z,14.40
2018-03-21T07:39:48.133Z,13.20
2018-03-21T07:40:48.099Z,15.70
2018-03-21T07:41:48.152Z,10.30
2018-03-21T07:42:48.133Z,11.80
2018-03-21T07:43:48.146Z,15.70
2018-03-21T07:44:48.118Z,13.90
2018-03-21T07:45:48.091Z,12.40
2018-03-21T07:46:48.102Z,11.80
2018-03-21T07:47:48.094Z,9.50
2018-03-21T07:48:48.144Z,10.70
2018-03-21T07:49:48.104Z,10.70
2018-03-21T07:50:48.168Z,8.20
2018-03-21T07:51:48.101Z,10.00
2018-03-21T07:52:48.144Z,8.70
2018-03-21T07:53:48.113Z,8.30
2018-03-21T07:54:48.131Z,7.90
2018-03-21T07:55:48.112Z,9.40
2018-03-21T07:56:48.116Z,10.10
2018-03-21T07:57:48.181Z,7.50
2018-03-21T07:58:48.112Z,8.30
2018-03-21T07:59:48.101Z,8.30
2018-03-21T08:00:48.224Z,6.40
2018-03-21T08:01:48.121Z,9.00
2018-03-21T08:02:48.148Z,8.60
2018-03-21T08:03:48.214Z,9.50
2018-03-21T08:04:48.509Z,7.70
2018-03-21T08:05:48.514Z,8.30
2018-03-21T08:06:48.154Z,7.40
2018-03-21T08:07:48.147Z,8.60
2018-03-21T08:08:48.197Z,7.70
2018-03-21T08:09:48.143Z,7.70
2018-03-21T08:10:48.468Z,8.00
2018-03-21T08:11:48.163Z,9.00
2018-03-21T08:12:48.197Z,7.70
2018-03-21T08:13:48.232Z,8.60
2018-03-21T08:14:48.177Z,9.40
2018-03-21T08:15:48.192Z,8.60
2018-03-21T08:16:48.175Z,8.70
2018-03-21T08:17:48.198Z,8.10
2018-03-21T08:18:48.224Z,8.00
2018-03-21T08:19:48.208Z,9.80
2018-03-21T08:20:49.134Z,7.20
2018-03-21T08:21:48.218Z,6.90
2018-03-21T08:22:48.206Z,8.30
2018-03-21T08:23:48.245Z,11.80
2018-03-21T08:24:48.210Z,16.30
2018-03-21T08:25:48.227Z,15.90
2018-03-21T08:26:48.616Z,15.00
2018-03-21T08:27:48.248Z,16.70
2018-03-21T08:28:48.256Z,12.50
2018-03-21T08:29:48.262Z,11.40
2018-03-21T08:30:48.234Z,8.60
2018-03-21T08:31:48.332Z,6.90
2018-03-21T08:32:48.256Z,7.60
2018-03-21T08:33:48.342Z,5.90
2018-03-21T08:34:48.254Z,4.90
2018-03-21T08:35:48.272Z,6.30
2018-03-21T08:36:48.265Z,4.70
2018-03-21T08:37:48.267Z,4.30
2018-03-21T08:38:48.311Z,5.40
2018-03-21T08:39:48.277Z,6.50
2018-03-21T08:40:48.292Z,5.20
2018-03-21T08:41:48.355Z,4.60
2018-03-21T08:42:48.288Z,5.90
2018-03-21T08:43:48.354Z,4.00
2018-03-21T08:44:48.325Z,4.30
2018-03-21T08:45:48.326Z,6.50
2018-03-21T08:46:48.342Z,6.80
2018-03-21T08:47:48.319Z,4.10
2018-03-21T08:48:48.359Z,5.60
2018-03-21T08:49:48.313Z,4.70
2018-03-21T08:50:48.343Z,4.90
2018-03-21T08:51:48.343Z,5.10
2018-03-21T08:52:48.368Z,6.80
2018-03-21T08:53:48.402Z,5.10
2018-03-21T08:54:48.356Z,5.30
2018-03-21T08:55:48.380Z,6.30
2018-03-21T08:56:48.378Z,5.60
2018-03-21T08:57:48.385Z,4.70
2018-03-21T08:58:48.459Z,5.30
2018-03-21T08:59:48.406Z,4.70
2018-03-21T09:00:48.420Z,4.80
2018-03-21T09:01:48.416Z,5.60
2018-03-21T09:02:48.428Z,3.70
2018-03-21T09:03:48.496Z,7.50
2018-03-21T09:04:48.504Z,5.00
2018-03-21T09:05:48.454Z,5.50
2018-03-21T09:06:48.482Z,5.80
2018-03-21T09:07:48.500Z,5.90
2018-03-21T09:08:48.472Z,5.40
2018-03-21T09:09:48.447Z,5.70
2018-03-21T09:10:48.508Z,5.20
2018-03-21T09:11:48.495Z,4.40
2018-03-21T09:12:48.538Z,4.50
2018-03-21T09:13:48.512Z,4.10
2018-03-21T09:14:48.527Z,5.10
2018-03-21T09:15:48.503Z,4.70
2018-03-21T09:16:48.549Z,5.40
2018-03-21T09:17:48.592Z,4.20
2018-03-21T09:18:48.539Z,6.30
2018-03-21T09:19:48.516Z,5.80
2018-03-21T09:20:48.532Z,6.50
2018-03-21T09:21:48.557Z,6.20
2018-03-21T09:22:48.605Z,5.90
2018-03-21T09:23:48.609Z,5.50
2018-03-21T09:24:48.569Z,5.70
2018-03-21T09:25:48.574Z,4.50
2018-03-21T09:26:48.583Z,5.00
2018-03-21T09:27:48.624Z,5.60
2018-03-21T09:28:48.609Z,5.60
2018-03-21T09:29:48.614Z,5.80
2018-03-21T09:30:48.617Z,5.30
2018-03-21T09:31:48.614Z,5.90
2018-03-21T09:32:48.688Z,6.10
2018-03-21T09:33:48.637Z,6.70
2018-03-21T09:34:48.639Z,5.50
2018-03-21T09:35:48.643Z,5.70
2018-03-21T09:36:48.679Z,5.10
2018-03-21T09:37:48.711Z,7.30
2018-03-21T09:38:48.676Z,4.40
2018-03-21T09:39:48.698Z,5.70
2018-03-21T09:40:48.730Z,5.80
2018-03-21T09:41:48.717Z,6.90
2018-03-21T09:42:48.777Z,5.50
2018-03-21T09:43:48.724Z,6.20
2018-03-21T09:44:48.739Z,4.80
2018-03-21T09:45:48.740Z,3.70
2018-03-21T09:46:48.757Z,4.30
2018-03-21T09:47:48.842Z,5.40
2018-03-21T09:48:48.774Z,3.70
2018-03-21T09:49:48.777Z,4.60
2018-03-21T09:50:48.820Z,3.70
2018-03-21T09:51:48.803Z,3.30
2018-03-21T09:52:48.843Z,2.50
2018-03-21T09:53:48.803Z,3.80
2018-03-21T09:54:48.823Z,3.80
2018-03-21T09:55:48.873Z,3.80
2018-03-21T09:56:48.842Z,3.50
2018-03-21T09:57:48.913Z,2.90
2018-03-21T09:58:48.855Z,3.50
2018-03-21T09:59:48.867Z,4.20
2018-03-21T10:00:48.903Z,4.20
2018-03-21T10:01:48.903Z,3.50
2018-03-21T10:02:48.933Z,2.10
2018-03-21T10:03:48.917Z,5.30
2018-03-21T10:04:48.930Z,3.20
2018-03-21T10:05:48.922Z,5.00
2018-03-21T10:06:48.939Z,3.00
2018-03-21T10:07:49.006Z,3.60
2018-03-21T10:08:48.990Z,3.90
2018-03-21T10:09:48.969Z,4.80
2018-03-21T10:10:48.973Z,2.30
2018-03-21T10:11:48.999Z,2.40
2018-03-21T10:12:49.013Z,4.80
2018-03-21T10:13:49.079Z,2.70
2018-03-21T10:14:49.026Z,4.00
2018-03-21T10:15:49.101Z,3.50
2018-03-21T10:16:49.042Z,4.80
2018-03-21T10:17:49.065Z,3.60
2018-03-21T10:18:49.127Z,3.10
2018-03-21T10:19:49.102Z,3.90
2018-03-21T10:20:49.088Z,3.40
2018-03-21T10:21:50.010Z,3.10
2018-03-21T10:22:49.143Z,3.10
2018-03-21T10:23:49.951Z,3.70
2018-03-21T10:24:49.146Z,2.50
2018-03-21T10:25:49.221Z,2.80
2018-03-21T10:26:49.170Z,4.20
2018-03-21T10:27:49.709Z,4.10
2018-03-21T10:28:49.191Z,4.00
2018-03-21T10:29:49.309Z,2.90
2018-03-21T10:30:49.194Z,3.80
2018-03-21T10:31:49.388Z,4.00
2018-03-21T10:32:49.299Z,3.30
2018-03-21T10:33:49.319Z,3.70
2018-03-21T10:34:49.270Z,3.80
2018-03-21T10:35:49.278Z,3.90
2018-03-21T10:36:49.280Z,4.70
2018-03-21T10:37:49.299Z,2.60
2018-03-21T10:38:49.348Z,4.90
2018-03-21T10:39:49.327Z,2.70
2018-03-21T10:40:49.347Z,3.20
2018-03-21T10:41:49.361Z,4.20
2018-03-21T10:42:49.358Z,2.30
2018-03-21T10:43:49.457Z,2.50
2018-03-21T10:44:49.375Z,2.60
2018-03-21T10:45:49.430Z,3.70
2018-03-21T10:46:49.425Z,4.00
2018-03-21T10:47:49.486Z,4.70
2018-03-21T10:48:49.450Z,4.50
2018-03-21T10:49:49.457Z,3.70
2018-03-21T10:50:49.464Z,4.40
2018-03-21T10:51:49.463Z,3.10
2018-03-21T10:52:49.547Z,4.60
2018-03-21T10:53:49.513Z,3.60
2018-03-21T10:54:49.493Z,4.30
2018-03-21T10:55:49.495Z,4.00
2018-03-21T10:56:49.553Z,4.00
2018-03-21T10:57:49.582Z,3.90
2018-03-21T10:58:49.549Z,4.20
2018-03-21T10:59:49.600Z,4.20
2018-03-21T11:00:49.603Z,5.60
2018-03-21T11:01:49.584Z,5.40
2018-03-21T11:02:49.635Z,3.20
2018-03-21T11:03:49.604Z,3.90
2018-03-21T11:04:49.602Z,5.10
2018-03-21T11:05:49.662Z,3.30
2018-03-21T11:06:49.640Z,4.50
2018-03-21T11:07:49.700Z,2.80
2018-03-21T11:08:49.657Z,3.10
2018-03-21T11:09:49.683Z,3.40
2018-03-21T11:10:49.741Z,4.70
2018-03-21T11:11:49.705Z,2.90
2018-03-21T11:12:49.776Z,3.90
2018-03-21T11:13:49.742Z,3.80
2018-03-21T11:14:49.739Z,3.60
2018-03-21T11:15:49.755Z,2.90
2018-03-21T11:16:49.748Z,3.10
2018-03-21T11:17:49.817Z,3.00
2018-03-21T11:18:49.767Z,2.50
2018-03-21T11:19:49.813Z,2.60
2018-03-21T11:20:49.815Z,3.20
2018-03-21T11:21:49.807Z,3.10
2018-03-21T11:22:49.867Z,2.90
2018-03-21T11:23:49.872Z,3.50
2018-03-21T11:24:49.846Z,3.00
2018-03-21T11:25:49.860Z,3.40
2018-03-21T11:26:49.873Z,2.70
2018-03-21T11:27:49.915Z,2.80
2018-03-21T11:28:49.887Z,2.90
2018-03-21T11:29:49.899Z,3.00
2018-03-21T11:30:49.941Z,3.20
2018-03-21T11:31:49.913Z,3.30
2018-03-21T11:32:49.964Z,3.40
2018-03-21T11:33:49.929Z,2.90
2018-03-21T11:34:49.944Z,2.60
2018-03-21T11:35:50.004Z,2.70
2018-03-21T11:36:49.958Z,3.20
2018-03-21T11:37:50.031Z,3.50
2018-03-21T11:38:49.989Z,3.60
2018-03-21T11:39:50.020Z,3.80
2018-03-21T11:40:50.025Z,3.10
2018-03-21T11:41:50.013Z,3.40
2018-03-21T11:42:50.017Z,2.60
2018-03-21T11:43:50.069Z,2.30
2018-03-21T11:44:50.032Z,2.90
2018-03-21T11:45:50.054Z,3.90
2018-03-21T11:46:50.047Z,3.00
2018-03-21T11:47:50.096Z,2.20
2018-03-21T11:48:50.134Z,1.90
2018-03-21T11:49:50.093Z,2.30
2018-03-21T11:50:50.089Z,2.40
2018-03-21T11:51:50.108Z,2.40
2018-03-21T11:52:50.104Z,2.30
2018-03-21T11:53:50.168Z,1.90
2018-03-21T11:54:50.152Z,2.60
2018-03-21T11:55:50.155Z,3.70
2018-03-21T11:56:50.159Z,3.00
2018-03-21T11:57:50.213Z,3.60
2018-03-21T11:58:50.186Z,2.70
2018-03-21T11:59:50.192Z,3.90
2018-03-21T12:00:50.203Z,1.70
2018-03-21T12:01:50.209Z,1.70
2018-03-21T12:02:50.309Z,2.10
2018-03-21T12:03:50.234Z,2.70
2018-03-21T12:04:50.241Z,3.50
2018-03-21T12:05:50.274Z,2.60
2018-03-21T12:06:50.252Z,3.60
2018-03-21T12:07:50.323Z,2.50
2018-03-21T12:08:50.282Z,2.60
2018-03-21T12:09:50.293Z,3.00
2018-03-21T12:10:50.295Z,3.00
2018-03-21T12:11:50.348Z,2.60
2018-03-21T12:12:50.349Z,3.50
2018-03-21T12:13:50.343Z,2.60
2018-03-21T12:14:50.353Z,2.00
2018-03-21T12:15:50.365Z,2.30
2018-03-21T12:16:50.373Z,2.50
2018-03-21T12:17:50.445Z,1.90
2018-03-21T12:18:50.403Z,2.20
2018-03-21T12:19:50.424Z,3.00
2018-03-21T12:20:50.398Z,1.60
2018-03-21T12:21:50.422Z,2.30
2018-03-21T12:22:50.475Z,1.80
2018-03-21T12:23:50.467Z,3.40
2018-03-21T12:24:50.445Z,1.40
2018-03-21T12:25:50.467Z,2.30
2018-03-21T12:26:50.474Z,1.60
2018-03-21T12:27:50.524Z,2.70
2018-03-21T12:28:50.507Z,1.50
2018-03-21T12:29:50.504Z,2.10
2018-03-21T12:30:50.503Z,1.80
2018-03-21T12:31:50.533Z,3.30
2018-03-21T12:32:50.611Z,5.20
2018-03-21T12:33:50.553Z,7.80
2018-03-21T12:34:50.537Z,4.40
2018-03-21T12:35:50.569Z,2.30
2018-03-21T12:36:50.577Z,2.90
2018-03-21T12:37:50.634Z,1.70
2018-03-21T12:38:50.565Z,1.70
2018-03-21T12:39:50.603Z,1.50
2018-03-21T12:40:50.607Z,1.40
2018-03-21T12:41:50.625Z,2.20
2018-03-21T12:42:50.679Z,2.00
2018-03-21T12:43:50.654Z,2.50
2018-03-21T12:44:50.626Z,2.00
2018-03-21T12:45:50.645Z,1.70
2018-03-21T12:46:50.656Z,2.70
2018-03-21T12:47:50.724Z,2.50
2018-03-21T12:48:50.668Z,1.30
2018-03-21T12:49:50.676Z,1.50
2018-03-21T12:50:50.693Z,2.60
2018-03-21T12:51:50.704Z,1.90
2018-03-21T12:52:50.773Z,2.00
2018-03-21T12:53:50.704Z,2.30
2018-03-21T12:54:50.725Z,1.90
2018-03-21T12:55:50.762Z,2.10
2018-03-21T12:56:50.757Z,1.30
2018-03-21T12:57:50.798Z,2.40
2018-03-21T12:58:50.756Z,4.20
2018-03-21T12:59:50.782Z,56.20
2018-03-21T13:00:50.798Z,22.10
2018-03-21T13:01:50.819Z,8.50
2018-03-21T13:02:50.863Z,4.10
2018-03-21T13:03:50.812Z,1.90
2018-03-21T13:04:50.820Z,2.30
2018-03-21T13:05:50.919Z,21.90
2018-03-21T13:06:50.854Z,11.70
2018-03-21T13:07:50.897Z,2.00
2018-03-21T13:08:50.872Z,1.70
2018-03-21T13:09:50.884Z,2.00
2018-03-21T13:10:50.884Z,2.10
2018-03-21T13:11:50.888Z,2.20
2018-03-21T13:12:50.941Z,2.30
2018-03-21T13:13:50.900Z,2.00
2018-03-21T13:14:50.948Z,2.50
2018-03-21T13:15:50.933Z,1.90
2018-03-21T13:16:50.934Z,3.20
2018-03-21T13:17:50.967Z,2.80
2018-03-21T13:18:50.954Z,2.20
2018-03-21T13:19:50.948Z,2.40
2018-03-21T13:20:50.982Z,3.20
2018-03-21T13:21:50.983Z,2.00
2018-03-21T13:22:51.014Z,2.30
2018-03-21T13:23:50.997Z,1.50
2018-03-21T13:24:50.983Z,2.70
2018-03-21T13:25:50.991Z,2.30
2018-03-21T13:26:50.987Z,1.80
2018-03-21T13:27:51.062Z,1.50